createdAt,value
2022-08-02T00:00:38.739Z,100251.84
2022-08-02T00:03:05.860Z,100243.81
2022-08-02T00:05:32.883Z,100243.41
2022-08-02T00:07:59.939Z,100244.22
2022-08-02T00:10:27.049Z,100239.00
2022-08-02T00:12:54.073Z,100239.03
2022-08-02T00:15:22.463Z,100241.44
2022-08-02T00:17:49.731Z,100240.22
2022-08-02T00:20:16.976Z,100240.22
2022-08-02T00:22:44.024Z,100248.25
2022-08-02T00:25:11.131Z,100247.44
2022-08-02T00:27:38.259Z,100246.63
2022-08-02T00:30:06.076Z,100246.63
2022-08-02T00:32:33.122Z,100242.19
2022-08-02T00:35:00.079Z,100247.41
2022-08-02T00:37:27.174Z,100244.59
2022-08-02T00:39:56.001Z,100249.41
2022-08-02T00:42:23.058Z,100255.00
2022-08-02T00:44:50.227Z,100262.22
2022-08-02T00:47:19.543Z,100256.19
2022-08-02T00:49:47.509Z,100265.00
2022-08-02T00:52:15.076Z,100265.81
2022-08-02T00:54:42.396Z,100256.94
2022-08-02T00:57:09.672Z,100260.13
2022-08-02T00:59:36.872Z,100258.50
2022-08-02T01:02:03.998Z,100264.56
2022-08-02T01:04:32.408Z,100268.19
2022-08-02T01:07:12.787Z,100275.03
2022-08-02T01:09:45.455Z,100272.59
2022-08-02T01:12:13.353Z,100276.63
2022-08-02T01:14:46.583Z,100271.78
2022-08-02T01:17:24.278Z,100274.22
2022-08-02T01:20:03.411Z,100271.03
2022-08-02T01:23:02.251Z,100275.47
2022-08-02T01:25:38.925Z,100280.31
2022-08-02T01:28:24.210Z,100275.50
2022-08-02T01:31:21.427Z,100275.50
2022-08-02T01:34:11.795Z,100278.31
2022-08-02T01:36:42.987Z,100276.72
2022-08-02T01:39:26.931Z,100277.50
2022-08-02T01:42:01.310Z,100279.53
2022-08-02T01:44:32.146Z,100271.47
2022-08-02T01:47:09.449Z,100278.69
2022-08-02T01:49:38.733Z,100274.28
2022-08-02T01:52:26.201Z,100270.69
2022-08-02T01:55:09.841Z,100276.31
2022-08-02T01:57:49.743Z,100265.06
2022-08-02T02:00:18.783Z,100256.25
2022-08-02T02:02:48.280Z,100263.47
2022-08-02T02:05:18.878Z,100271.09
2022-08-02T02:07:49.621Z,100263.88
2022-08-02T02:10:22.198Z,100271.09
2022-08-02T02:12:51.489Z,100259.84
2022-08-02T02:15:18.999Z,100271.09
2022-08-02T02:18:11.530Z,100273.91
2022-08-02T02:20:37.252Z,100273.50
2022-08-02T02:23:05.120Z,100273.50
2022-08-02T02:25:36.471Z,100280.31
2022-08-02T02:28:30.376Z,100278.69
2022-08-02T02:31:06.575Z,100274.72
2022-08-02T02:33:37.754Z,100276.69
2022-08-02T02:36:08.077Z,100275.09
2022-08-02T02:38:36.683Z,100281.09
2022-08-02T02:41:07.037Z,100275.50
2022-08-02T02:43:36.341Z,100292.28
2022-08-02T02:46:05.437Z,100291.91
2022-08-02T02:48:34.282Z,100291.09
2022-08-02T02:51:08.268Z,100283.44
2022-08-02T03:12:32.114Z,100305.66
2022-08-02T03:15:01.800Z,100301.72
2022-08-02T03:17:47.390Z,100307.78
2022-08-02T03:20:17.768Z,100293.81
2022-08-02T03:22:46.698Z,100302.63
2022-08-02T03:25:14.869Z,100304.22
2022-08-02T03:27:42.414Z,100305.03
2022-08-02T03:30:12.296Z,100298.69
2022-08-02T03:32:41.238Z,100303.50
2022-08-02T03:35:11.253Z,100312.72
2022-08-02T03:37:39.225Z,100304.31
2022-08-02T03:40:08.740Z,100301.09
2022-08-02T03:42:35.784Z,100303.03
2022-08-02T03:45:08.492Z,100311.06
2022-08-02T03:47:38.814Z,100319.94
2022-08-02T03:50:14.581Z,100322.34
2022-08-02T03:52:44.338Z,100324.81
2022-08-02T03:55:13.463Z,100315.97
2022-08-02T03:57:42.554Z,100312.78
2022-08-02T04:00:12.254Z,100320.41
2022-08-02T04:02:45.417Z,100324.47
2022-08-02T04:05:12.443Z,100320.78
2022-08-02T04:08:33.693Z,100326.38
2022-08-02T04:10:26.866Z,100326.69
2022-08-02T04:12:54.888Z,100323.88
2022-08-02T04:15:23.828Z,100318.16
2022-08-02T04:17:57.532Z,100321.28
2022-08-02T04:20:30.205Z,100323.16
2022-08-02T04:23:10.125Z,100323.06
2022-08-02T04:25:40.442Z,100317.00
2022-08-02T04:28:16.580Z,100308.78
2022-08-02T04:30:46.931Z,100316.00
2022-08-02T04:33:14.629Z,100304.41
2022-08-02T04:35:41.847Z,100305.34
2022-08-02T04:38:10.676Z,100304.47
2022-08-02T04:40:38.745Z,100307.97
2022-08-02T04:43:06.269Z,100301.19
2022-08-02T04:45:33.649Z,100297.69
2022-08-02T04:48:07.657Z,100301.97
2022-08-02T04:50:35.430Z,100300.41
2022-08-02T04:53:02.798Z,100303.63
2022-08-02T04:55:30.271Z,100305.09
2022-08-02T04:57:58.413Z,100310.94
2022-08-02T05:00:27.716Z,100301.56
2022-08-02T05:02:56.971Z,100297.44
2022-08-02T05:05:24.076Z,100294.25
2022-08-02T05:07:51.084Z,100304.06
2022-08-02T05:10:18.471Z,100296.38
2022-08-02T05:12:45.539Z,100295.63
2022-08-02T05:15:14.363Z,100312.75
2022-08-02T05:17:46.869Z,100308.28
2022-08-02T05:20:19.277Z,100316.28
2022-08-02T05:22:46.772Z,100309.19
2022-08-02T05:25:13.977Z,100307.81
2022-08-02T05:27:42.406Z,100319.03
2022-08-02T05:30:10.168Z,100325.75
2022-08-02T05:32:48.130Z,100322.91
2022-08-02T05:35:19.925Z,100336.31
2022-08-02T05:37:48.467Z,100339.94
2022-08-02T05:40:16.495Z,100336.47
2022-08-02T05:42:44.604Z,100334.25
2022-08-02T05:45:12.234Z,100329.81
2022-08-02T05:47:39.979Z,100338.53
2022-08-02T05:50:09.342Z,100336.72
2022-08-02T05:52:45.650Z,100339.88
2022-08-02T05:55:19.304Z,100345.38
2022-08-02T05:57:53.732Z,100335.09
2022-08-02T06:00:22.253Z,100342.97
2022-08-02T06:03:22.732Z,100344.56
2022-08-02T06:06:02.221Z,100345.78
2022-08-02T06:08:33.988Z,100342.22
2022-08-02T06:11:03.691Z,100336.03
2022-08-02T06:13:31.512Z,100344.63
2022-08-02T06:16:00.245Z,100353.22
2022-08-02T06:18:28.865Z,100348.53
2022-08-02T06:22:33.473Z,100359.06
2022-08-02T06:23:57.380Z,100362.13
2022-08-02T06:26:27.982Z,100358.47
2022-08-02T06:28:57.473Z,100360.69
2022-08-02T06:31:25.142Z,100364.94
2022-08-02T06:33:52.438Z,100347.78
2022-08-02T06:36:32.146Z,100351.69
2022-08-02T06:39:25.907Z,100350.38
2022-08-02T06:41:57.980Z,100343.28
2022-08-02T06:44:48.704Z,100343.69
2022-08-02T06:47:18.191Z,100353.66
2022-08-02T06:49:51.377Z,100351.53
2022-08-02T06:52:23.231Z,100351.47
2022-08-02T06:54:55.086Z,100348.91
2022-08-02T06:57:22.187Z,100357.00
2022-08-02T06:59:49.194Z,100354.41
2022-08-02T07:02:16.332Z,100360.59
2022-08-02T07:04:43.486Z,100356.94
2022-08-02T07:07:10.437Z,100363.28
2022-08-02T07:09:37.593Z,100362.75
2022-08-02T07:12:05.377Z,100356.03
2022-08-02T07:14:32.438Z,100354.75
2022-08-02T07:17:03.433Z,100353.88
2022-08-02T07:19:37.653Z,100358.66
2022-08-02T07:22:05.970Z,100365.41
2022-08-02T07:24:33.033Z,100350.44
2022-08-02T07:27:15.683Z,100369.34
2022-08-02T07:29:46.661Z,100358.41
2022-08-02T07:32:22.846Z,100365.97
2022-08-02T07:34:50.965Z,100376.59
2022-08-02T07:37:35.926Z,100360.41
2022-08-02T07:40:14.896Z,100357.66
2022-08-02T07:42:45.393Z,100362.72
2022-08-02T07:45:13.722Z,100360.03
2022-08-02T07:47:41.643Z,100357.28
2022-08-02T07:50:10.388Z,100353.03
2022-08-02T07:52:37.518Z,100363.78
2022-08-02T07:55:05.853Z,100374.28
2022-08-02T07:57:33.127Z,100370.69
2022-08-02T08:00:00.469Z,100359.59
2022-08-02T08:02:27.563Z,100357.56
2022-08-02T08:04:54.899Z,100369.03
2022-08-02T08:07:22.064Z,100367.19
2022-08-02T08:09:53.616Z,100365.09
2022-08-02T08:12:24.391Z,100365.41
2022-08-02T08:14:51.320Z,100359.16
2022-08-02T08:17:18.717Z,100370.94
2022-08-02T08:19:51.079Z,100366.25
2022-08-02T08:22:22.620Z,100364.66
2022-08-02T08:24:50.085Z,100364.63
2022-08-02T08:27:18.392Z,100359.00
2022-08-02T08:29:46.284Z,100357.91
2022-08-02T08:32:17.259Z,100363.50
2022-08-02T08:34:48.561Z,100353.81
2022-08-02T08:37:18.306Z,100352.34
2022-08-02T08:39:58.258Z,100357.63
2022-08-02T08:42:31.182Z,100360.22
2022-08-02T08:44:59.658Z,100355.66
2022-08-02T08:47:35.498Z,100347.13
2022-08-02T08:50:22.858Z,100345.97
2022-08-02T08:53:04.759Z,100340.41
2022-08-02T08:55:33.968Z,100347.16
2022-08-02T08:58:02.495Z,100345.34
2022-08-02T09:00:34.374Z,100340.59
2022-08-02T09:03:08.704Z,100348.16
2022-08-02T09:05:38.190Z,100353.63
2022-08-02T09:08:06.329Z,100357.16
2022-08-02T09:10:48.065Z,100345.00
2022-08-02T09:13:38.839Z,100340.25
2022-08-02T09:16:13.052Z,100344.69
2022-08-02T09:18:46.458Z,100343.41
2022-08-02T09:21:16.019Z,100335.53
2022-08-02T09:23:51.728Z,100332.94
2022-08-02T09:26:23.688Z,100335.44
2022-08-02T09:29:01.855Z,100337.88
2022-08-02T09:31:29.065Z,100336.47
2022-08-02T09:33:58.043Z,100337.34
2022-08-02T09:36:26.729Z,100337.31
2022-08-02T09:38:58.038Z,100335.03
2022-08-02T09:41:30.252Z,100335.22
2022-08-02T09:44:05.433Z,100338.31
2022-08-02T09:46:42.941Z,100327.84
2022-08-02T09:49:13.375Z,100341.25
2022-08-02T09:51:47.577Z,100339.88
2022-08-02T09:54:18.885Z,100325.59
2022-08-02T09:56:51.183Z,100341.91
2022-08-02T09:59:20.095Z,100335.84
2022-08-02T10:01:51.595Z,100329.69
2022-08-02T10:04:34.286Z,100342.22
2022-08-02T10:07:21.565Z,100331.78
2022-08-02T10:09:50.466Z,100325.41
2022-08-02T10:12:17.969Z,100321.69
2022-08-02T10:14:45.893Z,100328.44
2022-08-02T10:17:13.601Z,100323.38
2022-08-02T10:20:02.911Z,100321.53
2022-08-02T10:22:28.427Z,100316.34
2022-08-02T10:24:55.478Z,100316.03
2022-08-02T10:27:25.912Z,100337.09
2022-08-02T10:29:57.814Z,100334.94
2022-08-02T10:32:31.630Z,100319.88
2022-08-02T10:35:19.124Z,100331.78
2022-08-02T10:37:56.258Z,100323.72
2022-08-02T10:40:23.735Z,100324.59
2022-08-02T10:43:01.962Z,100318.28
2022-08-02T10:45:29.543Z,100322.88
2022-08-02T10:47:59.596Z,100323.22
2022-08-02T10:50:46.029Z,100317.38
2022-08-02T10:53:42.614Z,100311.91
2022-08-02T10:56:09.621Z,100325.06
2022-08-02T10:58:36.631Z,100316.41
2022-08-02T11:01:06.300Z,100325.94
2022-08-02T11:03:39.398Z,100331.09
2022-08-02T11:06:08.215Z,100321.69
2022-08-02T11:08:35.496Z,100328.94
2022-08-02T11:11:18.275Z,100336.84
2022-08-02T11:14:08.906Z,100324.56
2022-08-02T11:16:57.235Z,100321.34
2022-08-02T11:19:24.814Z,100317.16
2022-08-02T11:22:16.334Z,100315.28
2022-08-02T11:24:47.440Z,100340.47
2022-08-02T11:27:21.832Z,100325.53
2022-08-02T11:29:49.857Z,100322.22
2022-08-02T11:32:18.826Z,100327.91
2022-08-02T11:34:52.359Z,100330.94
2022-08-02T11:37:32.932Z,100329.66
2022-08-02T11:40:00.107Z,100332.94
2022-08-02T11:42:34.841Z,100328.25
2022-08-02T11:45:02.583Z,100333.31
2022-08-02T11:47:31.580Z,100333.59
2022-08-02T11:50:09.216Z,100325.78
2022-08-02T11:52:37.085Z,100308.75
2022-08-02T11:55:06.260Z,100306.81
2022-08-02T11:58:02.982Z,100314.44
2022-08-02T12:00:22.315Z,100325.47
2022-08-02T12:02:54.275Z,100327.28
2022-08-02T12:05:44.731Z,100325.44
2022-08-02T12:08:10.878Z,100327.88
2022-08-02T12:10:47.663Z,100323.94
2022-08-02T12:13:14.857Z,100335.63
2022-08-02T12:15:47.088Z,100325.97
2022-08-02T12:18:50.914Z,100321.38
2022-08-02T12:21:23.725Z,100316.78
2022-08-02T12:24:00.662Z,100312.81
2022-08-02T12:26:29.407Z,100314.31
2022-08-02T12:28:58.270Z,100322.75
2022-08-02T12:31:56.884Z,100311.94
2022-08-02T12:34:32.097Z,100312.94
2022-08-02T12:37:10.573Z,100312.56
2022-08-02T12:39:46.013Z,100304.41
2022-08-02T12:42:16.146Z,100307.63
2022-08-02T12:44:58.991Z,100302.19
2022-08-02T12:47:31.294Z,100309.28
2022-08-02T12:50:21.137Z,100317.28
2022-08-02T12:52:49.576Z,100318.06
2022-08-02T12:55:16.613Z,100315.78
2022-08-02T12:57:53.839Z,100313.84
2022-08-02T13:00:29.701Z,100306.25
2022-08-02T13:02:57.998Z,100308.97
2022-08-02T13:05:25.791Z,100313.31
2022-08-02T13:07:53.186Z,100308.22
2022-08-02T13:10:21.713Z,100304.78
2022-08-02T13:12:48.661Z,100304.09
2022-08-02T13:15:49.397Z,100304.09
2022-08-02T13:18:03.281Z,100307.00
2022-08-02T13:20:30.467Z,100307.78
2022-08-02T13:23:03.893Z,100308.91
2022-08-02T13:25:31.358Z,100308.97
2022-08-02T13:27:58.369Z,100310.97
2022-08-02T13:30:25.320Z,100309.97
2022-08-02T13:32:52.491Z,100302.25
2022-08-02T13:35:19.839Z,100306.78
2022-08-02T13:37:47.879Z,100298.47
2022-08-02T13:40:22.734Z,100305.75
2022-08-02T13:42:50.190Z,100313.09
2022-08-02T13:45:17.240Z,100315.94
2022-08-02T13:48:03.922Z,100305.03
2022-08-02T13:50:32.576Z,100303.78
2022-08-02T13:52:59.546Z,100314.41
2022-08-02T13:55:26.644Z,100313.16
2022-08-02T13:57:54.308Z,100313.53
2022-08-02T14:00:34.840Z,100311.91
2022-08-02T14:03:07.336Z,100317.25
2022-08-02T14:05:47.677Z,100311.88
2022-08-02T14:08:17.634Z,100302.22
2022-08-02T14:10:45.920Z,100310.75
2022-08-02T14:13:12.915Z,100307.56
2022-08-02T14:15:39.999Z,100308.81
2022-08-02T14:18:06.926Z,100321.25
2022-08-02T14:20:33.918Z,100303.19
2022-08-02T14:23:00.781Z,100306.09
2022-08-02T14:25:27.701Z,100318.09
2022-08-02T14:27:54.674Z,100312.38
2022-08-02T14:30:23.356Z,100308.06
2022-08-02T14:32:50.799Z,100310.91
2022-08-02T14:35:17.826Z,100309.06
2022-08-02T14:37:44.780Z,100297.03
2022-08-02T14:40:28.106Z,100317.59
2022-08-02T14:42:59.697Z,100317.47
2022-08-02T14:45:41.107Z,100322.03
2022-08-02T14:48:10.094Z,100311.72
2022-08-02T14:50:36.950Z,100321.94
2022-08-02T14:53:03.933Z,100323.09
2022-08-02T14:55:30.874Z,100314.09
2022-08-02T15:14:10.047Z,100334.63
2022-08-02T15:16:55.621Z,100327.50
2022-08-02T15:19:23.291Z,100330.88
2022-08-02T15:21:54.800Z,100336.88
2022-08-02T15:24:24.413Z,100327.25
2022-08-02T15:26:51.869Z,100326.19
2022-08-02T15:29:19.455Z,100340.22
2022-08-02T15:31:47.066Z,100336.88
2022-08-02T15:34:14.238Z,100339.06
2022-08-02T15:36:45.822Z,100340.16
2022-08-02T15:39:12.912Z,100342.31
2022-08-02T15:41:39.791Z,100354.72
2022-08-02T15:44:09.233Z,100352.81
2022-08-02T15:46:38.214Z,100351.88
2022-08-02T15:49:06.185Z,100346.25
2022-08-02T15:51:33.201Z,100346.97
2022-08-02T15:54:00.128Z,100343.34
2022-08-02T15:56:27.130Z,100355.16
2022-08-02T15:58:58.684Z,100352.28
2022-08-02T16:01:37.374Z,100358.41
2022-08-02T16:04:07.009Z,100363.91
2022-08-02T16:06:37.237Z,100363.84
2022-08-02T16:09:04.533Z,100367.75
2022-08-02T16:11:31.502Z,100368.19
2022-08-02T16:13:59.182Z,100369.38
2022-08-02T16:16:29.394Z,100374.28
2022-08-02T16:18:56.997Z,100379.16
2022-08-02T16:21:24.889Z,100386.56
2022-08-02T16:23:58.616Z,100383.38
2022-08-02T16:26:34.167Z,100382.69
2022-08-02T16:29:02.981Z,100387.59
2022-08-02T16:31:30.282Z,100392.00
2022-08-02T16:33:57.692Z,100392.72
2022-08-02T16:36:26.258Z,100405.00
2022-08-02T16:38:54.533Z,100400.25
2022-08-02T16:41:22.145Z,100398.97
2022-08-02T16:43:49.116Z,100410.78
2022-08-02T16:46:16.014Z,100404.81
2022-08-02T16:48:50.911Z,100406.41
2022-08-02T16:51:19.262Z,100409.19
2022-08-02T16:53:59.969Z,100418.22
2022-08-02T16:56:28.956Z,100422.59
2022-08-02T16:58:59.560Z,100418.63
2022-08-02T17:02:02.082Z,100411.53
2022-08-02T17:04:15.864Z,100426.88
2022-08-02T17:06:47.310Z,100436.56
2022-08-02T17:10:04.348Z,100441.84
2022-08-02T17:12:09.927Z,100436.22
2022-08-02T17:14:41.912Z,100443.88
2022-08-02T17:17:21.561Z,100443.59
2022-08-02T17:19:48.808Z,100443.94
2022-08-02T17:22:17.761Z,100443.53
2022-08-02T17:24:44.862Z,100443.53
2022-08-02T17:27:17.311Z,100445.66
2022-08-02T17:29:47.108Z,100452.88
2022-08-02T17:32:18.150Z,100447.19
2022-08-02T17:34:56.686Z,100455.69
2022-08-02T17:37:28.754Z,100456.53
2022-08-02T17:39:57.058Z,100449.28
2022-08-02T17:42:25.042Z,100462.19
2022-08-02T17:44:54.202Z,100460.97
2022-08-02T17:47:22.494Z,100455.75
2022-08-02T17:49:50.396Z,100464.22
2022-08-02T17:52:50.743Z,100461.88
2022-08-02T17:55:10.926Z,100465.84
2022-08-02T17:57:57.133Z,100464.66
2022-08-02T18:00:26.809Z,100471.41
2022-08-02T18:02:55.048Z,100476.34
2022-08-02T18:05:23.290Z,100475.56
2022-08-02T18:08:06.628Z,100477.63
2022-08-02T18:10:34.439Z,100476.72
2022-08-02T18:13:03.611Z,100483.22
2022-08-02T18:15:32.599Z,100484.44
2022-08-02T18:18:00.644Z,100491.59
2022-08-02T18:20:27.605Z,100490.03
2022-08-02T18:22:58.523Z,100493.28
2022-08-02T18:25:36.929Z,100498.91
2022-08-02T18:28:13.201Z,100498.06
2022-08-02T18:30:40.707Z,100506.88
2022-08-02T18:33:56.152Z,100504.81
2022-08-02T18:35:55.826Z,100513.66
2022-08-02T18:38:26.843Z,100511.19
2022-08-02T18:41:12.851Z,100521.25
2022-08-02T18:43:43.661Z,100521.22
2022-08-02T18:46:15.901Z,100524.00
2022-08-02T18:48:46.598Z,100526.00
2022-08-02T18:51:16.056Z,100526.81
2022-08-02T18:53:46.732Z,100532.88
2022-08-02T18:56:20.327Z,100536.91
2022-08-02T18:58:56.053Z,100533.22
2022-08-02T19:01:33.848Z,100537.34
2022-08-02T19:04:04.445Z,100542.59
2022-08-02T19:06:32.057Z,100553.09
2022-08-02T19:11:48.200Z,100545.84
2022-08-02T19:14:27.132Z,100560.81
2022-08-02T19:16:59.607Z,100553.56
2022-08-02T19:19:28.642Z,100557.53
2022-08-02T19:22:16.364Z,100552.41
2022-08-02T19:24:45.879Z,100550.81
2022-08-02T19:27:14.771Z,100553.19
2022-08-02T19:29:48.894Z,100557.22
2022-08-02T19:32:41.531Z,100553.19
2022-08-02T19:35:19.748Z,100552.75
2022-08-02T19:37:52.533Z,100556.47
2022-08-02T19:40:24.151Z,100551.34
2022-08-02T19:44:27.116Z,100549.75
2022-08-02T19:45:49.766Z,100552.19
2022-08-02T19:48:23.714Z,100557.06
2022-08-02T19:50:56.699Z,100552.63
2022-08-02T19:53:29.423Z,100557.47
2022-08-02T19:56:20.289Z,100551.84
2022-08-02T19:58:51.461Z,100552.69
2022-08-02T20:01:23.552Z,100547.44
2022-08-02T20:03:55.428Z,100546.72
2022-08-02T20:06:29.351Z,100532.25
2022-08-02T20:08:59.387Z,100533.06
2022-08-02T20:11:34.700Z,100532.69
2022-08-02T20:14:04.323Z,100532.72
2022-08-02T20:16:32.709Z,100538.34
2022-08-02T20:19:01.030Z,100526.28
2022-08-02T20:21:34.526Z,100529.09
2022-08-02T20:24:05.252Z,100541.16
2022-08-02T20:26:32.278Z,100535.56
2022-08-02T20:29:02.340Z,100524.69
2022-08-02T20:31:30.322Z,100538.81
2022-08-02T20:33:57.578Z,100528.34
2022-08-02T20:36:28.119Z,100534.00
2022-08-02T20:38:55.825Z,100535.25
2022-08-02T20:41:23.601Z,100537.72
2022-08-02T20:44:04.432Z,100539.41
2022-08-02T20:46:43.415Z,100533.81
2022-08-02T20:49:23.106Z,100539.81
2022-08-02T20:51:52.741Z,100541.44
2022-08-02T20:54:21.579Z,100546.66
2022-08-02T20:56:50.460Z,100538.63
2022-08-02T20:59:17.883Z,100547.06
2022-08-02T21:01:56.667Z,100546.66
2022-08-02T21:04:24.773Z,100545.03
2022-08-02T21:06:52.235Z,100533.78
2022-08-02T21:09:19.134Z,100541.84
2022-08-02T21:12:00.047Z,100544.25
2022-08-02T21:14:27.322Z,100544.28
2022-08-02T21:16:54.241Z,100543.50
2022-08-02T21:19:21.703Z,100549.94
2022-08-02T21:21:48.640Z,100547.13
2022-08-02T21:24:16.352Z,100541.50
2022-08-02T21:26:47.283Z,100541.88
2022-08-02T21:29:15.786Z,100543.88
2022-08-02T21:31:43.364Z,100535.50
2022-08-02T21:34:22.403Z,100533.94
2022-08-02T21:36:54.539Z,100537.16
2022-08-02T21:39:21.581Z,100534.75
2022-08-02T21:41:49.407Z,100536.78
2022-08-02T21:44:20.787Z,100533.13
2022-08-02T21:46:50.036Z,100533.94
2022-08-02T21:49:27.271Z,100531.13
2022-08-02T21:52:09.172Z,100528.75
2022-08-02T21:54:39.769Z,100525.50
2022-08-02T21:57:15.489Z,100527.53
2022-08-02T21:59:47.743Z,100530.38
2022-08-02T22:02:18.516Z,100532.38
2022-08-02T22:04:47.340Z,100530.78
2022-08-02T22:07:23.943Z,100531.97
2022-08-02T22:09:52.637Z,100532.34
2022-08-02T22:12:21.980Z,100536.38
2022-08-02T22:14:55.472Z,100530.34
2022-08-02T22:17:52.574Z,100521.09
2022-08-02T22:20:12.543Z,100527.94
2022-08-02T22:22:58.589Z,100528.34
2022-08-02T22:25:36.002Z,100530.34
2022-08-02T22:28:37.246Z,100528.31
2022-08-02T22:30:52.956Z,100533.56
2022-08-02T22:33:42.024Z,100537.16
2022-08-02T22:36:13.837Z,100534.78
2022-08-02T22:38:44.441Z,100535.16
2022-08-02T22:41:12.381Z,100545.22
2022-08-02T22:43:39.629Z,100538.78
2022-08-02T22:46:06.839Z,100537.16
2022-08-02T22:48:36.090Z,100543.59
2022-08-02T22:51:07.236Z,100543.19
2022-08-02T22:53:36.262Z,100542.78
2022-08-02T22:56:04.094Z,100546.81
2022-08-02T22:58:31.862Z,100547.59
2022-08-02T22:58:59.955Z,100555.13
2022-08-02T23:00:58.816Z,100547.59
2022-08-02T23:03:25.697Z,100547.22
2022-08-02T23:05:52.547Z,100554.03
2022-08-02T23:08:19.593Z,100549.22
2022-08-02T23:10:46.575Z,100550.41
2022-08-02T23:13:13.538Z,100545.59
2022-08-02T23:15:59.629Z,100546.41
2022-08-02T23:18:45.155Z,100546.00
2022-08-02T23:21:12.099Z,100551.63
2022-08-02T23:23:38.890Z,100546.00
2022-08-02T23:26:05.995Z,100556.00
2022-08-02T23:28:32.784Z,100556.00
2022-08-02T23:30:59.641Z,100551.19
2022-08-02T23:33:26.424Z,100551.19
2022-08-02T23:35:53.318Z,100552.78
2022-08-02T23:38:20.209Z,100549.16
2022-08-02T23:40:47.067Z,100556.75
2022-08-02T23:43:15.361Z,100556.34
2022-08-02T23:45:43.044Z,100549.88
2022-08-02T23:48:09.892Z,100561.91
2022-08-02T23:50:36.879Z,100552.22
2022-08-02T23:53:03.997Z,100551.41
2022-08-02T23:55:30.877Z,100552.59
2022-08-02T23:57:57.727Z,100548.56
